EUS17RS EGPH-LKPR
Flight info
| Callsign | EUS17RS |
|---|---|
| Flight time | 2h 2m |
| Altitude | 37000 |
| Route | TLA Y96 OTBUN DCT ERKIT N110 DOLAS L603 LAMSO DCT PETIK DCT DENOL DCT NOMKA L620 PIKIB T620 LALUK DCT GOLOP |
| Aircraft | A320/M-SDE3FGHIRWY/LB1 |
Departure
| Time | 2026-04-23 14:54 |
|---|---|
| Airport | Edinburgh Airport (EGPH) |
Arrival
| Time | 2026-04-23 16:57 |
|---|---|
| Airport | Václav Havel Airport Prague (LKPR) |
| Time | Latitude | Longitude | Altitude | Speed | Heading |
|---|---|---|---|---|---|
| 2026-04-23 14:41 | 55.94657 | -3.36615 | 115 ft | 0 kts | 89° |
| 2026-04-23 14:45 | 55.94657 | -3.36623 | 112 ft | 2 kts | 89° |
| 2026-04-23 14:45 | 55.94657 | -3.36657 | 114 ft | 3 kts | 89° |
| 2026-04-23 14:46 | 55.94656 | -3.36690 | 114 ft | 3 kts | 87° |
| 2026-04-23 14:46 | 55.94653 | -3.36718 | 113 ft | 3 kts | 37° |
| 2026-04-23 14:46 | 55.94636 | -3.36732 | 113 ft | 3 kts | 7° |
| 2026-04-23 14:46 | 55.94621 | -3.36734 | 113 ft | 1 kts | 359° |
| 2026-04-23 14:48 | 55.94666 | -3.36735 | 115 ft | 9 kts | 359° |
| 2026-04-23 14:49 | 55.94726 | -3.36736 | 116 ft | 9 kts | 359° |
| 2026-04-23 14:49 | 55.94789 | -3.36781 | 115 ft | 10 kts | 344° |
| 2026-04-23 14:49 | 55.94856 | -3.36780 | 116 ft | 10 kts | 1° |
| 2026-04-23 14:49 | 55.94919 | -3.36828 | 114 ft | 9 kts | 324° |
| 2026-04-23 14:50 | 55.94904 | -3.36960 | 113 ft | 22 kts | 235° |
| 2026-04-23 14:50 | 55.94822 | -3.37202 | 115 ft | 22 kts | 239° |
| 2026-04-23 14:50 | 55.94748 | -3.37425 | 111 ft | 20 kts | 239° |
| 2026-04-23 14:50 | 55.94679 | -3.37630 | 115 ft | 18 kts | 238° |
| 2026-04-23 14:51 | 55.94614 | -3.37815 | 116 ft | 17 kts | 238° |
| 2026-04-23 14:51 | 55.94555 | -3.37986 | 113 ft | 16 kts | 238° |
| 2026-04-23 14:51 | 55.94501 | -3.38147 | 113 ft | 15 kts | 239° |
| 2026-04-23 14:51 | 55.94438 | -3.38336 | 114 ft | 21 kts | 239° |
| 2026-04-23 14:52 | 55.94355 | -3.38585 | 114 ft | 22 kts | 239° |
| 2026-04-23 14:52 | 55.94306 | -3.38726 | 114 ft | 11 kts | 238° |
| 2026-04-23 14:52 | 55.94277 | -3.38838 | 114 ft | 9 kts | 267° |
| 2026-04-23 14:52 | 55.94320 | -3.38905 | 114 ft | 8 kts | 330° |
| 2026-04-23 14:53 | 55.94369 | -3.38955 | 114 ft | 8 kts | 330° |
| 2026-04-23 14:53 | 55.94421 | -3.38956 | 113 ft | 8 kts | 44° |
| 2026-04-23 14:53 | 55.94436 | -3.38912 | 114 ft | 0 kts | 59° |
| 2026-04-23 14:54 | 55.94468 | -3.38817 | 114 ft | 37 kts | 59° |
| 2026-04-23 14:54 | 55.94737 | -3.38025 | 112 ft | 108 kts | 59° |
| 2026-04-23 14:54 | 55.95222 | -3.36597 | 207 ft | 152 kts | 59° |
| 2026-04-23 14:54 | 55.95753 | -3.35045 | 1029 ft | 145 kts | 58° |
| 2026-04-23 14:55 | 55.96447 | -3.33632 | 1563 ft | 161 kts | 41° |
| 2026-04-23 14:55 | 55.97374 | -3.32286 | 1956 ft | 181 kts | 39° |
| 2026-04-23 14:55 | 55.98400 | -3.30754 | 2421 ft | 204 kts | 44° |
| 2026-04-23 14:55 | 55.99500 | -3.28937 | 2883 ft | 228 kts | 44° |
| 2026-04-23 14:56 | 56.00717 | -3.26890 | 3377 ft | 252 kts | 44° |
| 2026-04-23 14:56 | 56.02044 | -3.24670 | 4042 ft | 267 kts | 44° |
| 2026-04-23 14:56 | 56.03426 | -3.22387 | 4980 ft | 273 kts | 43° |
| 2026-04-23 14:56 | 56.04723 | -3.19878 | 5854 ft | 278 kts | 61° |
| 2026-04-23 14:57 | 56.05200 | -3.16563 | 6746 ft | 279 kts | 94° |
| 2026-04-23 14:57 | 56.05019 | -3.13103 | 7664 ft | 281 kts | 99° |
| 2026-04-23 14:57 | 56.04463 | -3.09766 | 8540 ft | 282 kts | 121° |
| 2026-04-23 14:57 | 56.03243 | -3.07042 | 9441 ft | 282 kts | 141° |
| 2026-04-23 14:58 | 56.01676 | -3.04917 | 10363 ft | 284 kts | 145° |
| 2026-04-23 14:58 | 56.00058 | -3.02748 | 10888 ft | 302 kts | 144° |
| 2026-04-23 14:58 | 55.98263 | -3.00545 | 11170 ft | 324 kts | 155° |
| 2026-04-23 14:58 | 55.96027 | -2.99501 | 11396 ft | 344 kts | 176° |
| 2026-04-23 14:59 | 55.93603 | -2.98922 | 11835 ft | 358 kts | 166° |
| 2026-04-23 14:59 | 55.91260 | -2.97309 | 12536 ft | 365 kts | 155° |
| 2026-04-23 14:59 | 55.89026 | -2.95117 | 13260 ft | 370 kts | 150° |
| 2026-04-23 14:59 | 55.86809 | -2.92722 | 13969 ft | 375 kts | 149° |
| 2026-04-23 15:00 | 55.84540 | -2.90338 | 14630 ft | 380 kts | 151° |
| 2026-04-23 15:00 | 55.82208 | -2.88071 | 15275 ft | 384 kts | 153° |
| 2026-04-23 15:00 | 55.79815 | -2.85929 | 15932 ft | 387 kts | 154° |
| 2026-04-23 15:00 | 55.77374 | -2.83870 | 16561 ft | 390 kts | 155° |
| 2026-04-23 15:01 | 55.74895 | -2.81846 | 17180 ft | 394 kts | 155° |
| 2026-04-23 15:01 | 55.72396 | -2.79822 | 17822 ft | 395 kts | 156° |
| 2026-04-23 15:01 | 55.69893 | -2.77784 | 18499 ft | 397 kts | 156° |
| 2026-04-23 15:01 | 55.67377 | -2.75715 | 19075 ft | 400 kts | 155° |
| 2026-04-23 15:02 | 55.65704 | -2.74327 | 19402 ft | 403 kts | 155° |
| 2026-04-23 15:02 | 55.62296 | -2.71496 | 20084 ft | 406 kts | 155° |
| 2026-04-23 15:02 | 55.59726 | -2.69363 | 20605 ft | 409 kts | 155° |
| 2026-04-23 15:02 | 55.57142 | -2.67217 | 21098 ft | 413 kts | 155° |
| 2026-04-23 15:03 | 55.54533 | -2.65053 | 21553 ft | 416 kts | 155° |
| 2026-04-23 15:03 | 55.51895 | -2.62870 | 22002 ft | 420 kts | 155° |
| 2026-04-23 15:03 | 55.50140 | -2.61420 | 22298 ft | 423 kts | 155° |
| 2026-04-23 15:03 | 55.47465 | -2.59214 | 22746 ft | 426 kts | 155° |
| 2026-04-23 15:04 | 55.44763 | -2.56988 | 23184 ft | 430 kts | 155° |
| 2026-04-23 15:04 | 55.42045 | -2.54755 | 23618 ft | 433 kts | 155° |
| 2026-04-23 15:04 | 55.39297 | -2.52505 | 24043 ft | 437 kts | 155° |
| 2026-04-23 15:04 | 55.36533 | -2.50250 | 24387 ft | 440 kts | 155° |
| 2026-04-23 15:05 | 55.33746 | -2.47977 | 24760 ft | 443 kts | 155° |
| 2026-04-23 15:05 | 55.30942 | -2.45688 | 25077 ft | 446 kts | 154° |
| 2026-04-23 15:05 | 55.28173 | -2.43222 | 25442 ft | 448 kts | 148° |
| 2026-04-23 15:05 | 55.25610 | -2.40094 | 25812 ft | 450 kts | 142° |
| 2026-04-23 15:06 | 55.23116 | -2.36756 | 26155 ft | 452 kts | 142° |
| 2026-04-23 15:06 | 55.20599 | -2.33401 | 26434 ft | 457 kts | 142° |
| 2026-04-23 15:06 | 55.18065 | -2.30036 | 26768 ft | 459 kts | 142° |
| 2026-04-23 15:06 | 55.15515 | -2.26662 | 27111 ft | 460 kts | 142° |
| 2026-04-23 15:07 | 55.12951 | -2.23280 | 27443 ft | 463 kts | 142° |
| 2026-04-23 15:07 | 55.10371 | -2.19878 | 27708 ft | 466 kts | 142° |
| 2026-04-23 15:07 | 55.07778 | -2.16458 | 28004 ft | 469 kts | 141° |
| 2026-04-23 15:07 | 55.05168 | -2.13024 | 28323 ft | 471 kts | 141° |
| 2026-04-23 15:08 | 55.02548 | -2.09582 | 28632 ft | 473 kts | 142° |
| 2026-04-23 15:08 | 54.99912 | -2.06128 | 28930 ft | 475 kts | 142° |
| 2026-04-23 15:08 | 54.97268 | -2.02671 | 29351 ft | 475 kts | 141° |
| 2026-04-23 15:09 | 54.91986 | -1.95784 | 30198 ft | 474 kts | 141° |
| 2026-04-23 15:09 | 54.89349 | -1.92352 | 30620 ft | 473 kts | 141° |
| 2026-04-23 15:09 | 54.86718 | -1.88933 | 30996 ft | 472 kts | 142° |
| 2026-04-23 15:09 | 54.84095 | -1.85528 | 31400 ft | 470 kts | 142° |
| 2026-04-23 15:10 | 54.81479 | -1.82138 | 31803 ft | 468 kts | 142° |
| 2026-04-23 15:10 | 54.78880 | -1.78779 | 32234 ft | 466 kts | 142° |
| 2026-04-23 15:10 | 54.76285 | -1.75430 | 32656 ft | 463 kts | 142° |
| 2026-04-23 15:10 | 54.73704 | -1.72102 | 33089 ft | 461 kts | 142° |
| 2026-04-23 15:11 | 54.71142 | -1.68801 | 33523 ft | 459 kts | 143° |
| 2026-04-23 15:11 | 54.68588 | -1.65514 | 33957 ft | 456 kts | 143° |
| 2026-04-23 15:11 | 54.66046 | -1.62252 | 34403 ft | 453 kts | 143° |
| 2026-04-23 15:11 | 54.63530 | -1.59027 | 34965 ft | 445 kts | 144° |
| 2026-04-23 15:12 | 54.61073 | -1.55886 | 35572 ft | 437 kts | 144° |
| 2026-04-23 15:12 | 54.58631 | -1.52772 | 35939 ft | 435 kts | 144° |
| 2026-04-23 15:12 | 54.56198 | -1.49676 | 36212 ft | 435 kts | 144° |
| 2026-04-23 15:12 | 54.53764 | -1.46579 | 36452 ft | 435 kts | 144° |
| 2026-04-23 15:13 | 54.51326 | -1.43475 | 36692 ft | 436 kts | 144° |
| 2026-04-23 15:13 | 54.48890 | -1.40379 | 36929 ft | 436 kts | 144° |
| 2026-04-23 15:13 | 54.46446 | -1.37281 | 37148 ft | 436 kts | 144° |
| 2026-04-23 15:13 | 54.44004 | -1.34196 | 37361 ft | 437 kts | 144° |
| 2026-04-23 15:14 | 54.41552 | -1.31097 | 37499 ft | 438 kts | 144° |
| 2026-04-23 15:14 | 54.36633 | -1.24888 | 37514 ft | 439 kts | 144° |
| 2026-04-23 15:15 | 54.31705 | -1.18697 | 37493 ft | 439 kts | 144° |
| 2026-04-23 15:15 | 54.26776 | -1.12531 | 37494 ft | 439 kts | 144° |
| 2026-04-23 15:16 | 54.21877 | -1.06414 | 37493 ft | 439 kts | 144° |
| 2026-04-23 15:16 | 54.16948 | -1.00283 | 37521 ft | 437 kts | 144° |
| 2026-04-23 15:17 | 54.12048 | -0.94187 | 37535 ft | 435 kts | 144° |
| 2026-04-23 15:17 | 54.07158 | -0.88133 | 37535 ft | 434 kts | 145° |
| 2026-04-23 15:18 | 54.02275 | -0.82116 | 37538 ft | 433 kts | 145° |
| 2026-04-23 15:18 | 53.97352 | -0.76257 | 37541 ft | 432 kts | 146° |
| 2026-04-23 15:19 | 53.92383 | -0.70504 | 37529 ft | 432 kts | 146° |
| 2026-04-23 15:19 | 53.87394 | -0.64709 | 37522 ft | 432 kts | 146° |
| 2026-04-23 15:20 | 53.82443 | -0.58941 | 37524 ft | 432 kts | 146° |
| 2026-04-23 15:20 | 53.77495 | -0.53188 | 37521 ft | 432 kts | 146° |
| 2026-04-23 15:21 | 53.72543 | -0.47443 | 37521 ft | 432 kts | 146° |
| 2026-04-23 15:21 | 53.67587 | -0.41731 | 37513 ft | 432 kts | 146° |
| 2026-04-23 15:22 | 53.62620 | -0.36028 | 37511 ft | 432 kts | 146° |
| 2026-04-23 15:22 | 53.57843 | -0.30041 | 37509 ft | 433 kts | 136° |
| 2026-04-23 15:23 | 53.54016 | -0.22140 | 37509 ft | 434 kts | 128° |
| 2026-04-23 15:23 | 53.50404 | -0.14069 | 37511 ft | 435 kts | 128° |
| 2026-04-23 15:24 | 53.46752 | -0.05981 | 37510 ft | 435 kts | 128° |
| 2026-04-23 15:24 | 53.43088 | 0.02121 | 37506 ft | 435 kts | 129° |
| 2026-04-23 15:25 | 53.39439 | 0.10172 | 37531 ft | 433 kts | 129° |
| 2026-04-23 15:25 | 53.35796 | 0.18191 | 37533 ft | 432 kts | 129° |
| 2026-04-23 15:26 | 53.32159 | 0.26162 | 37531 ft | 431 kts | 129° |
| 2026-04-23 15:26 | 53.28523 | 0.34103 | 37528 ft | 430 kts | 129° |
| 2026-04-23 15:27 | 53.24879 | 0.42014 | 37521 ft | 429 kts | 129° |
| 2026-04-23 15:27 | 53.21238 | 0.49912 | 37515 ft | 429 kts | 129° |
| 2026-04-23 15:28 | 53.17603 | 0.57794 | 37515 ft | 429 kts | 129° |
| 2026-04-23 15:28 | 53.13957 | 0.65653 | 37517 ft | 428 kts | 129° |
| 2026-04-23 15:29 | 53.10342 | 0.73426 | 37518 ft | 427 kts | 129° |
| 2026-04-23 15:29 | 53.06697 | 0.81241 | 37517 ft | 427 kts | 129° |
| 2026-04-23 15:30 | 53.03055 | 0.89035 | 37512 ft | 427 kts | 129° |
| 2026-04-23 15:30 | 52.99478 | 0.96908 | 37516 ft | 428 kts | 123° |
| 2026-04-23 15:31 | 52.97180 | 1.06022 | 37508 ft | 433 kts | 105° |
| 2026-04-23 15:31 | 52.96046 | 1.15853 | 37512 ft | 434 kts | 104° |
| 2026-04-23 15:32 | 52.94921 | 1.25670 | 37514 ft | 433 kts | 104° |
| 2026-04-23 15:32 | 52.93775 | 1.35470 | 37513 ft | 433 kts | 104° |
| 2026-04-23 15:33 | 52.92612 | 1.45268 | 37506 ft | 433 kts | 104° |
| 2026-04-23 15:33 | 52.91444 | 1.55061 | 37491 ft | 433 kts | 105° |
| 2026-04-23 15:34 | 52.90274 | 1.64842 | 37491 ft | 433 kts | 105° |
| 2026-04-23 15:34 | 52.89101 | 1.74639 | 37496 ft | 433 kts | 105° |
| 2026-04-23 15:35 | 52.87917 | 1.84417 | 37492 ft | 433 kts | 105° |
| 2026-04-23 15:35 | 52.86719 | 1.94196 | 37495 ft | 434 kts | 105° |
| 2026-04-23 15:36 | 52.85509 | 2.03976 | 37469 ft | 434 kts | 105° |
| 2026-04-23 15:36 | 52.84290 | 2.13778 | 37483 ft | 434 kts | 105° |
| 2026-04-23 15:37 | 52.83070 | 2.23538 | 37476 ft | 434 kts | 105° |
| 2026-04-23 15:37 | 52.82050 | 2.31661 | 37481 ft | 434 kts | 105° |
| 2026-04-23 15:38 | 52.80605 | 2.43079 | 37483 ft | 434 kts | 105° |
| 2026-04-23 15:38 | 52.79357 | 2.52831 | 37470 ft | 434 kts | 105° |
| 2026-04-23 15:39 | 52.78114 | 2.62509 | 37497 ft | 433 kts | 105° |
| 2026-04-23 15:39 | 52.76860 | 2.72234 | 37498 ft | 433 kts | 105° |
| 2026-04-23 15:40 | 52.75595 | 2.81938 | 37482 ft | 432 kts | 106° |
| 2026-04-23 15:40 | 52.74316 | 2.91625 | 37481 ft | 432 kts | 106° |
| 2026-04-23 15:41 | 52.73045 | 3.01320 | 37482 ft | 432 kts | 105° |
| 2026-04-23 15:41 | 52.72066 | 3.11113 | 37487 ft | 433 kts | 102° |
| 2026-04-23 15:42 | 52.71265 | 3.20951 | 37491 ft | 432 kts | 101° |
| 2026-04-23 15:42 | 52.70417 | 3.30735 | 37478 ft | 431 kts | 102° |
| 2026-04-23 15:43 | 52.69492 | 3.40500 | 37476 ft | 431 kts | 103° |
| 2026-04-23 15:43 | 52.68548 | 3.50237 | 37475 ft | 430 kts | 103° |
| 2026-04-23 15:44 | 52.67606 | 3.59983 | 37465 ft | 431 kts | 102° |
| 2026-04-23 15:44 | 52.66660 | 3.69724 | 37465 ft | 431 kts | 102° |
| 2026-04-23 15:45 | 52.65708 | 3.79476 | 37471 ft | 431 kts | 102° |
| 2026-04-23 15:45 | 52.64748 | 3.89207 | 37467 ft | 431 kts | 102° |
| 2026-04-23 15:46 | 52.63777 | 3.98938 | 37466 ft | 431 kts | 103° |
| 2026-04-23 15:46 | 52.62802 | 4.08670 | 37456 ft | 431 kts | 102° |
| 2026-04-23 15:47 | 52.61815 | 4.18387 | 37462 ft | 430 kts | 102° |
| 2026-04-23 15:47 | 52.60758 | 4.28074 | 37454 ft | 430 kts | 104° |
| 2026-04-23 15:48 | 52.59567 | 4.37693 | 37453 ft | 429 kts | 104° |
| 2026-04-23 15:48 | 52.58369 | 4.47133 | 37443 ft | 429 kts | 104° |
| 2026-04-23 15:49 | 52.57360 | 4.55181 | 37438 ft | 429 kts | 104° |
| 2026-04-23 15:49 | 52.56172 | 4.64788 | 37432 ft | 429 kts | 104° |
| 2026-04-23 15:50 | 52.54977 | 4.74380 | 37431 ft | 428 kts | 104° |
| 2026-04-23 15:50 | 52.53767 | 4.83954 | 37430 ft | 428 kts | 104° |
| 2026-04-23 15:51 | 52.52546 | 4.93529 | 37427 ft | 428 kts | 105° |
| 2026-04-23 15:51 | 52.51322 | 5.03096 | 37416 ft | 429 kts | 104° |
| 2026-04-23 15:52 | 52.50087 | 5.12673 | 37414 ft | 429 kts | 104° |
| 2026-04-23 15:52 | 52.48846 | 5.22249 | 37420 ft | 429 kts | 104° |
| 2026-04-23 15:53 | 52.47592 | 5.31838 | 37427 ft | 430 kts | 104° |
| 2026-04-23 15:53 | 52.46334 | 5.41399 | 37433 ft | 430 kts | 105° |
| 2026-04-23 15:54 | 52.45063 | 5.50989 | 37424 ft | 430 kts | 104° |
| 2026-04-23 15:54 | 52.43784 | 5.60564 | 37426 ft | 430 kts | 104° |
| 2026-04-23 15:55 | 52.42496 | 5.70137 | 37404 ft | 430 kts | 105° |
| 2026-04-23 15:55 | 52.41190 | 5.79790 | 37400 ft | 431 kts | 105° |
| 2026-04-23 15:56 | 52.39889 | 5.89356 | 37404 ft | 431 kts | 105° |
| 2026-04-23 15:56 | 52.38589 | 5.98934 | 37397 ft | 431 kts | 104° |
| 2026-04-23 15:57 | 52.37268 | 6.08540 | 37398 ft | 431 kts | 104° |
| 2026-04-23 15:57 | 52.35929 | 6.18150 | 37401 ft | 431 kts | 104° |
| 2026-04-23 15:58 | 52.34584 | 6.27744 | 37407 ft | 431 kts | 105° |
| 2026-04-23 15:58 | 52.33180 | 6.37294 | 37398 ft | 430 kts | 106° |
| 2026-04-23 15:59 | 52.31596 | 6.46791 | 37392 ft | 430 kts | 107° |
| 2026-04-23 15:59 | 52.29982 | 6.56190 | 37381 ft | 430 kts | 107° |
| 2026-04-23 16:00 | 52.28385 | 6.65612 | 37379 ft | 430 kts | 107° |
| 2026-04-23 16:00 | 52.26798 | 6.75039 | 37376 ft | 430 kts | 107° |
| 2026-04-23 16:01 | 52.25202 | 6.84482 | 37376 ft | 430 kts | 107° |
| 2026-04-23 16:01 | 52.23594 | 6.93939 | 37370 ft | 431 kts | 106° |
| 2026-04-23 16:02 | 52.21982 | 7.03337 | 37372 ft | 431 kts | 106° |
| 2026-04-23 16:02 | 52.20359 | 7.12745 | 37366 ft | 431 kts | 106° |
| 2026-04-23 16:03 | 52.18731 | 7.22157 | 37369 ft | 431 kts | 107° |
| 2026-04-23 16:03 | 52.17092 | 7.31557 | 37367 ft | 431 kts | 107° |
| 2026-04-23 16:04 | 52.15448 | 7.40951 | 37363 ft | 431 kts | 106° |
| 2026-04-23 16:04 | 52.13789 | 7.50336 | 37339 ft | 432 kts | 106° |
| 2026-04-23 16:05 | 52.12396 | 7.58197 | 37338 ft | 432 kts | 106° |
| 2026-04-23 16:05 | 52.10462 | 7.69103 | 37338 ft | 432 kts | 107° |
| 2026-04-23 16:06 | 52.08782 | 7.78476 | 37341 ft | 432 kts | 107° |
| 2026-04-23 16:06 | 52.07085 | 7.87899 | 37346 ft | 432 kts | 106° |
| 2026-04-23 16:07 | 52.05410 | 7.97199 | 37335 ft | 432 kts | 106° |
| 2026-04-23 16:07 | 52.03706 | 8.06607 | 37328 ft | 431 kts | 106° |
| 2026-04-23 16:08 | 52.02001 | 8.15951 | 37323 ft | 432 kts | 107° |
| 2026-04-23 16:08 | 52.00283 | 8.25293 | 37317 ft | 432 kts | 107° |
| 2026-04-23 16:09 | 51.98567 | 8.34619 | 37332 ft | 431 kts | 106° |
| 2026-04-23 16:09 | 51.96841 | 8.43939 | 37318 ft | 431 kts | 106° |
| 2026-04-23 16:10 | 51.95104 | 8.53256 | 37314 ft | 432 kts | 106° |
| 2026-04-23 16:10 | 51.93359 | 8.62565 | 37308 ft | 432 kts | 106° |
| 2026-04-23 16:11 | 51.91606 | 8.71887 | 37313 ft | 432 kts | 106° |
| 2026-04-23 16:11 | 51.89846 | 8.81186 | 37318 ft | 432 kts | 106° |
| 2026-04-23 16:12 | 51.88082 | 8.90491 | 37314 ft | 432 kts | 105° |
| 2026-04-23 16:12 | 51.86304 | 8.99782 | 37302 ft | 432 kts | 106° |
| 2026-04-23 16:13 | 51.84520 | 9.09065 | 37297 ft | 432 kts | 106° |
| 2026-04-23 16:13 | 51.81841 | 9.22965 | 37289 ft | 432 kts | 106° |
| 2026-04-23 16:14 | 51.80028 | 9.32277 | 37292 ft | 432 kts | 106° |
| 2026-04-23 16:14 | 51.78220 | 9.41529 | 37285 ft | 432 kts | 106° |
| 2026-04-23 16:15 | 51.76407 | 9.50773 | 37286 ft | 432 kts | 106° |
| 2026-04-23 16:15 | 51.74588 | 9.60010 | 37290 ft | 432 kts | 106° |
| 2026-04-23 16:16 | 51.72760 | 9.69256 | 37289 ft | 432 kts | 106° |
| 2026-04-23 16:16 | 51.70928 | 9.78478 | 37307 ft | 432 kts | 106° |
| 2026-04-23 16:17 | 51.69400 | 9.86127 | 37301 ft | 431 kts | 106° |
| 2026-04-23 16:17 | 51.67660 | 9.94807 | 37295 ft | 430 kts | 106° |
| 2026-04-23 16:18 | 51.65813 | 10.03955 | 37294 ft | 430 kts | 106° |
| 2026-04-23 16:18 | 51.63957 | 10.13100 | 37289 ft | 430 kts | 106° |
| 2026-04-23 16:19 | 51.62097 | 10.22242 | 37292 ft | 430 kts | 105° |
| 2026-04-23 16:19 | 51.60232 | 10.31439 | 37280 ft | 430 kts | 105° |
| 2026-04-23 16:20 | 51.58355 | 10.40574 | 37287 ft | 430 kts | 105° |
| 2026-04-23 16:20 | 51.56466 | 10.49693 | 37285 ft | 430 kts | 106° |
| 2026-04-23 16:21 | 51.54588 | 10.58739 | 37280 ft | 430 kts | 106° |
| 2026-04-23 16:21 | 51.52694 | 10.67839 | 37293 ft | 429 kts | 105° |
| 2026-04-23 16:22 | 51.50783 | 10.76980 | 37280 ft | 429 kts | 105° |
| 2026-04-23 16:22 | 51.48875 | 10.86059 | 37270 ft | 429 kts | 105° |
| 2026-04-23 16:23 | 51.46977 | 10.95065 | 37266 ft | 429 kts | 106° |
| 2026-04-23 16:23 | 51.45045 | 11.04174 | 37258 ft | 429 kts | 106° |
| 2026-04-23 16:24 | 51.43128 | 11.13157 | 37261 ft | 429 kts | 105° |
| 2026-04-23 16:24 | 51.41191 | 11.22219 | 37243 ft | 430 kts | 105° |
| 2026-04-23 16:25 | 51.39246 | 11.31288 | 37237 ft | 431 kts | 105° |
| 2026-04-23 16:25 | 51.37290 | 11.40358 | 37235 ft | 432 kts | 105° |
| 2026-04-23 16:26 | 51.35326 | 11.49441 | 37234 ft | 432 kts | 105° |
| 2026-04-23 16:26 | 51.33349 | 11.58531 | 37254 ft | 433 kts | 105° |
| 2026-04-23 16:27 | 51.31360 | 11.67611 | 37253 ft | 433 kts | 105° |
| 2026-04-23 16:27 | 51.29350 | 11.76752 | 37253 ft | 433 kts | 105° |
| 2026-04-23 16:28 | 51.27344 | 11.85826 | 37252 ft | 433 kts | 105° |
| 2026-04-23 16:28 | 51.25331 | 11.94898 | 37253 ft | 434 kts | 105° |
| 2026-04-23 16:29 | 51.23315 | 12.03970 | 37282 ft | 434 kts | 105° |
| 2026-04-23 16:29 | 51.21284 | 12.13052 | 37268 ft | 433 kts | 105° |
| 2026-04-23 16:30 | 51.19264 | 12.22061 | 37264 ft | 433 kts | 105° |
| 2026-04-23 16:30 | 51.17233 | 12.31091 | 37247 ft | 433 kts | 105° |
| 2026-04-23 16:31 | 51.15190 | 12.40137 | 37244 ft | 433 kts | 105° |
| 2026-04-23 16:31 | 51.13140 | 12.49126 | 37264 ft | 433 kts | 105° |
| 2026-04-23 16:32 | 51.11081 | 12.58108 | 37254 ft | 432 kts | 105° |
| 2026-04-23 16:32 | 51.09021 | 12.67082 | 37238 ft | 431 kts | 105° |
| 2026-04-23 16:33 | 51.06964 | 12.76026 | 37231 ft | 431 kts | 105° |
| 2026-04-23 16:33 | 51.04900 | 12.84969 | 37231 ft | 431 kts | 105° |
| 2026-04-23 16:34 | 51.02821 | 12.93908 | 37244 ft | 431 kts | 105° |
| 2026-04-23 16:34 | 51.00742 | 13.02840 | 37236 ft | 432 kts | 105° |
| 2026-04-23 16:35 | 50.98654 | 13.11774 | 37230 ft | 432 kts | 105° |
| 2026-04-23 16:35 | 50.96554 | 13.20706 | 37224 ft | 432 kts | 105° |
| 2026-04-23 16:36 | 50.94449 | 13.29625 | 37223 ft | 432 kts | 105° |
| 2026-04-23 16:36 | 50.92330 | 13.38538 | 37225 ft | 432 kts | 105° |
| 2026-04-23 16:37 | 50.90188 | 13.47512 | 37208 ft | 432 kts | 105° |
| 2026-04-23 16:37 | 50.88076 | 13.56362 | 37201 ft | 433 kts | 104° |
| 2026-04-23 16:38 | 50.85945 | 13.65269 | 37196 ft | 433 kts | 105° |
| 2026-04-23 16:38 | 50.83786 | 13.74241 | 37196 ft | 434 kts | 105° |
| 2026-04-23 16:39 | 50.81636 | 13.83082 | 36925 ft | 434 kts | 105° |
| 2026-04-23 16:39 | 50.80508 | 13.87578 | 35583 ft | 438 kts | 109° |
| 2026-04-23 16:39 | 50.79073 | 13.91843 | 34630 ft | 436 kts | 113° |
| 2026-04-23 16:40 | 50.77595 | 13.95984 | 33676 ft | 428 kts | 113° |
| 2026-04-23 16:40 | 50.76157 | 14.00049 | 32681 ft | 421 kts | 112° |
| 2026-04-23 16:40 | 50.74745 | 14.04068 | 31637 ft | 416 kts | 112° |
| 2026-04-23 16:40 | 50.73346 | 14.08072 | 30626 ft | 417 kts | 112° |
| 2026-04-23 16:41 | 50.71939 | 14.12094 | 29462 ft | 423 kts | 113° |
| 2026-04-23 16:41 | 50.70496 | 14.16208 | 28229 ft | 432 kts | 113° |
| 2026-04-23 16:41 | 50.69022 | 14.20390 | 27014 ft | 440 kts | 113° |
| 2026-04-23 16:41 | 50.67521 | 14.24633 | 25842 ft | 446 kts | 114° |
| 2026-04-23 16:42 | 50.65991 | 14.28921 | 24688 ft | 451 kts | 114° |
| 2026-04-23 16:42 | 50.64432 | 14.33238 | 23549 ft | 456 kts | 116° |
| 2026-04-23 16:42 | 50.62440 | 14.37215 | 22235 ft | 470 kts | 132° |
| 2026-04-23 16:42 | 50.59741 | 14.40228 | 20962 ft | 484 kts | 150° |
| 2026-04-23 16:43 | 50.56524 | 14.41835 | 19978 ft | 490 kts | 169° |
| 2026-04-23 16:43 | 50.53148 | 14.41883 | 19309 ft | 485 kts | 186° |
| 2026-04-23 16:43 | 50.49918 | 14.40455 | 18534 ft | 480 kts | 205° |
| 2026-04-23 16:43 | 50.47029 | 14.37893 | 17657 ft | 475 kts | 211° |
| 2026-04-23 16:44 | 50.44024 | 14.35820 | 16859 ft | 470 kts | 197° |
| 2026-04-23 16:44 | 50.40843 | 14.34847 | 16109 ft | 464 kts | 184° |
| 2026-04-23 16:44 | 50.37644 | 14.34852 | 15378 ft | 456 kts | 173° |
| 2026-04-23 16:44 | 50.34515 | 14.35497 | 14623 ft | 451 kts | 171° |
| 2026-04-23 16:45 | 50.31427 | 14.36138 | 13899 ft | 446 kts | 171° |
| 2026-04-23 16:45 | 50.28319 | 14.36749 | 13074 ft | 441 kts | 172° |
| 2026-04-23 16:45 | 50.25341 | 14.37319 | 12574 ft | 430 kts | 172° |
| 2026-04-23 16:45 | 50.22399 | 14.37879 | 12455 ft | 410 kts | 172° |
| 2026-04-23 16:46 | 50.19634 | 14.38413 | 12327 ft | 392 kts | 172° |
| 2026-04-23 16:46 | 50.17007 | 14.39108 | 12202 ft | 374 kts | 162° |
| 2026-04-23 16:46 | 50.14654 | 14.40592 | 12076 ft | 356 kts | 148° |
| 2026-04-23 16:46 | 50.12679 | 14.42754 | 11951 ft | 339 kts | 134° |
| 2026-04-23 16:47 | 50.11101 | 14.45422 | 11807 ft | 323 kts | 122° |
| 2026-04-23 16:47 | 50.09767 | 14.48185 | 11549 ft | 317 kts | 122° |
| 2026-04-23 16:47 | 50.08438 | 14.50911 | 11201 ft | 315 kts | 123° |
| 2026-04-23 16:47 | 50.07112 | 14.53617 | 10826 ft | 314 kts | 123° |
| 2026-04-23 16:48 | 50.05790 | 14.56315 | 10458 ft | 313 kts | 123° |
| 2026-04-23 16:48 | 50.04413 | 14.58950 | 9866 ft | 320 kts | 134° |
| 2026-04-23 16:48 | 50.02467 | 14.60643 | 8956 ft | 327 kts | 166° |
| 2026-04-23 16:48 | 50.00219 | 14.60679 | 8069 ft | 324 kts | 195° |
| 2026-04-23 16:49 | 49.98777 | 14.60112 | 7492 ft | 323 kts | 197° |
| 2026-04-23 16:49 | 49.95852 | 14.59058 | 6327 ft | 322 kts | 195° |
| 2026-04-23 16:49 | 49.93672 | 14.58310 | 5422 ft | 320 kts | 195° |
| 2026-04-23 16:49 | 49.91599 | 14.57356 | 4872 ft | 300 kts | 211° |
| 2026-04-23 16:50 | 49.90064 | 14.55426 | 4360 ft | 274 kts | 239° |
| 2026-04-23 16:50 | 49.89486 | 14.53725 | 4084 ft | 255 kts | 259° |
| 2026-04-23 16:50 | 49.89439 | 14.51198 | 4007 ft | 221 kts | 290° |
| 2026-04-23 16:50 | 49.90216 | 14.49328 | 4003 ft | 199 kts | 323° |
| 2026-04-23 16:51 | 49.91481 | 14.48641 | 4016 ft | 196 kts | 356° |
| 2026-04-23 16:51 | 49.92840 | 14.48829 | 4015 ft | 196 kts | 2° |
| 2026-04-23 16:51 | 49.94190 | 14.49073 | 4013 ft | 195 kts | 2° |
| 2026-04-23 16:51 | 49.95530 | 14.49316 | 4011 ft | 192 kts | 2° |
| 2026-04-23 16:52 | 49.96848 | 14.49533 | 4020 ft | 189 kts | 358° |
| 2026-04-23 16:52 | 49.98137 | 14.49220 | 4013 ft | 183 kts | 338° |
| 2026-04-23 16:52 | 49.99217 | 14.48235 | 4011 ft | 180 kts | 319° |
| 2026-04-23 16:52 | 50.00023 | 14.46750 | 4011 ft | 180 kts | 309° |
| 2026-04-23 16:53 | 50.00780 | 14.45195 | 3905 ft | 180 kts | 309° |
| 2026-04-23 16:53 | 50.01535 | 14.43643 | 3715 ft | 180 kts | 309° |
| 2026-04-23 16:53 | 50.02287 | 14.42096 | 3492 ft | 178 kts | 309° |
| 2026-04-23 16:53 | 50.03033 | 14.40563 | 3282 ft | 175 kts | 309° |
| 2026-04-23 16:54 | 50.03744 | 14.39101 | 3036 ft | 164 kts | 309° |
| 2026-04-23 16:54 | 50.04416 | 14.37716 | 2808 ft | 154 kts | 309° |
| 2026-04-23 16:54 | 50.05029 | 14.36453 | 2619 ft | 139 kts | 309° |
| 2026-04-23 16:54 | 50.05580 | 14.35318 | 2431 ft | 125 kts | 309° |
| 2026-04-23 16:55 | 50.06091 | 14.34265 | 2277 ft | 121 kts | 309° |
| 2026-04-23 16:55 | 50.06588 | 14.33235 | 2089 ft | 118 kts | 309° |
| 2026-04-23 16:55 | 50.07073 | 14.32229 | 1878 ft | 115 kts | 309° |
| 2026-04-23 16:55 | 50.07571 | 14.31246 | 1713 ft | 117 kts | 307° |
| 2026-04-23 16:56 | 50.08067 | 14.30226 | 1576 ft | 119 kts | 309° |
| 2026-04-23 16:56 | 50.08556 | 14.29195 | 1421 ft | 117 kts | 307° |
| 2026-04-23 16:56 | 50.09047 | 14.28172 | 1294 ft | 118 kts | 307° |
| 2026-04-23 16:56 | 50.09523 | 14.27182 | 1214 ft | 102 kts | 307° |
| 2026-04-23 16:57 | 50.09842 | 14.26523 | 1212 ft | 55 kts | 307° |
| 2026-04-23 16:57 | 50.10048 | 14.26096 | 1194 ft | 45 kts | 307° |
| 2026-04-23 16:57 | 50.10195 | 14.25795 | 1188 ft | 30 kts | 311° |
| 2026-04-23 16:57 | 50.10322 | 14.25673 | 1187 ft | 18 kts | 342° |
| 2026-04-23 16:58 | 50.10438 | 14.25658 | 1186 ft | 14 kts | 12° |
| 2026-04-23 16:58 | 50.10492 | 14.25777 | 1186 ft | 15 kts | 79° |
| 2026-04-23 16:58 | 50.10511 | 14.25932 | 1183 ft | 15 kts | 79° |
| 2026-04-23 16:58 | 50.10531 | 14.26096 | 1175 ft | 17 kts | 79° |
| 2026-04-23 16:59 | 50.10546 | 14.26216 | 1173 ft | 9 kts | 75° |
| 2026-04-23 16:59 | 50.10587 | 14.26273 | 1175 ft | 7 kts | 34° |
| 2026-04-23 16:59 | 50.10595 | 14.26281 | 1174 ft | 0 kts | 34° |